Amelia City, Florida
Current Conditions -  °F | °C
As of 11:55 PM on Monday 20 Oct 2014 (Local Time) from KFHB Reporting Station
Clear Clear  
Wind Chill: 73°   Ceiling: Unl
Heat Index: 73°   Visibility: 10mi
Dew Point: 68°   Wind: 3mph
Humidity: 83%   Direction: 210°SSW
Pressure: 29.98"   Gusts: NA
Location:  30.6056°N, 81.5268°W
Report Text: KFHB 210355Z AUTO 21003KT 10SM CLR 23/20 A2998 RMK AO1
Loading
Personal Weather Stations






























Interactive Weather Map
Tropical Storm Tracking
New forecast layout! Learn more

10-Day Weather Forecast

Advertisements
Track Severe Weather on mobile